EIKN - Connaught
Distance from station: E 5mi, 14km
Updated: 06/18/2018 10:00pm
Mostly Cloudy
Mostly Cloudy
 Wind from SW
Wind: SW 3 mph , 6 km/h
Temperature: 48°F , 9°C
Dew Point: 45°F , 7°C
Humidity: 87%
Barometer: 30.09 inHg , 1019 hPa
Clouds: Mostly Cloudy
Visibility: 6 miles , 10 km
Cloud details: Partly Cloudy 2700 ft
Mostly Cloudy 7500 ft
2018/06/19 05:00 EIKN 190500Z 22003KT 9999 SCT027 BKN075 09/07 Q1019 NOSIG